Time;durP1;ratioP1;P1;durP2;ratioP2;P2;SDS_P1;SDS_P2;PMS_P1;PMS_P2;Temp;Humidity;BMP_temperature;BMP_pressure;BME280_temperature;BME280_humidity;BME280_pressure;Samples;Min_cycle;Max_cycle;Signal;HPM_P1;HPM_P2
2022/08/08 00:02:10;;;;;;;51.13;10.03;;;;;;;;;;5009924;28;20485;-71
2022/08/08 00:04:42;;;;;;;54.13;12.27;;;;;;;;;;5007191;28;20488;-69
2022/08/08 00:07:15;;;;;;;32.87;7.50;;;;;;;;;;5010273;28;20481;-69
2022/08/08 00:09:52;;;;;;;55.90;10.57;;;;;;;;;;5002780;28;20560;-70
2022/08/08 00:12:21;;;;;;;68.83;11.70;;;;;;;;;;4982536;28;20488;-71
2022/08/08 00:14:50;;;;;;;83.87;14.23;;;;;;;;;;4997464;28;20495;-70
2022/08/08 00:17:19;;;;;;;38.67;7.30;;;;;;;;;;5014016;28;21130;-72
2022/08/08 00:19:48;;;;;;;75.23;13.10;;;;;;;;;;5005158;28;20489;-69
2022/08/08 00:22:25;;;;;;;36.83;7.40;;;;;;;;;;5012858;28;20485;-70
2022/08/08 00:24:57;;;;;;;52.23;9.67;;;;;;;;;;5006426;28;20880;-69
2022/08/08 00:27:26;;;;;;;32.33;6.80;;;;;;;;;;5015927;28;20692;-69
2022/08/08 00:29:55;;;;;;;52.37;9.70;;;;;;;;;;4994799;28;20586;-69
2022/08/08 00:32:24;;;;;;;42.13;8.23;;;;;;;;;;5016804;28;20914;-71
2022/08/08 00:35:11;;;;;;;56.23;10.37;;;;;;;;;;5000577;28;20493;-71
2022/08/08 00:37:42;;;;;;;37.03;7.43;;;;;;;;;;5000427;28;20849;-69
2022/08/08 00:40:35;;;;;;;38.30;7.43;;;;;;;;;;5003464;28;20468;-70
2022/08/08 00:43:14;;;;;;;25.23;5.97;;;;;;;;;;5019004;28;20469;-71
2022/08/08 00:45:57;;;;;;;82.13;13.03;;;;;;;;;;5015194;28;20468;-69
2022/08/08 00:48:48;;;;;;;33.53;7.47;;;;;;;;;;4988153;28;20474;-70
2022/08/08 00:51:31;;;;;;;39.43;7.80;;;;;;;;;;5011395;28;20884;-69
2022/08/08 00:54:22;;;;;;;52.17;9.70;;;;;;;;;;5016599;28;20476;-71
2022/08/08 00:57:01;;;;;;;75.80;11.60;;;;;;;;;;5007103;28;20488;-69
2022/08/08 00:59:47;;;;;;;39.23;7.97;;;;;;;;;;5019643;28;20488;-70
2022/08/08 01:02:41;;;;;;;38.90;7.20;;;;;;;;;;5016892;28;20891;-69
2022/08/08 01:05:25;;;;;;;47.73;8.80;;;;;;;;;;4961920;28;21145;-69
2022/08/08 01:08:19;;;;;;;38.20;7.43;;;;;;;;;;5018199;28;20481;-70
2022/08/08 01:11:13;;;;;;;73.43;12.00;;;;;;;;;;5021036;28;20946;-69
2022/08/08 01:13:53;;;;;;;82.17;13.47;;;;;;;;;;4997092;28;20472;-71
2022/08/08 01:16:35;;;;;;;35.03;7.80;;;;;;;;;;5017993;28;20481;-70
2022/08/08 01:19:31;;;;;;;33.40;6.03;;;;;;;;;;5022681;28;20501;-69
2022/08/08 01:22:15;;;;;;;41.07;8.10;;;;;;;;;;5019078;28;20491;-71
2022/08/08 01:24:50;;;;;;;33.93;7.20;;;;;;;;;;5014380;28;20484;-71
2022/08/08 01:27:44;;;;;;;34.17;8.07;;;;;;;;;;5019322;28;20475;-71
2022/08/08 01:30:30;;;;;;;21.20;4.83;;;;;;;;;;4983652;28;21035;-69
2022/08/08 01:33:17;;;;;;;30.80;5.80;;;;;;;;;;5010008;28;20883;-71
2022/08/08 01:35:59;;;;;;;82.87;13.43;;;;;;;;;;5022510;28;20484;-69
2022/08/08 01:38:36;;;;;;;27.83;6.87;;;;;;;;;;4977379;28;20483;-70
2022/08/08 01:41:08;;;;;;;32.60;7.07;;;;;;;;;;5019272;28;20484;-69
2022/08/08 01:43:41;;;;;;;33.67;6.70;;;;;;;;;;5020369;28;20495;-70
2022/08/08 01:46:14;;;;;;;32.73;6.50;;;;;;;;;;5021406;28;20492;-70
2022/08/08 01:48:49;;;;;;;83.00;12.70;;;;;;;;;;5020865;28;20480;-68
2022/08/08 01:51:35;;;;;;;42.97;8.10;;;;;;;;;;5020644;28;20480;-70
2022/08/08 01:54:07;;;;;;;54.67;10.43;;;;;;;;;;5006280;28;20476;-70
2022/08/08 01:56:40;;;;;;;38.87;7.73;;;;;;;;;;5009726;28;20774;-70
2022/08/08 01:59:14;;;;;;;27.00;4.87;;;;;;;;;;5021913;28;20564;-68
2022/08/08 02:01:53;;;;;;;72.00;12.03;;;;;;;;;;5018746;28;20526;-68
2022/08/08 02:04:22;;;;;;;37.93;7.83;;;;;;;;;;5005832;28;20479;-70
2022/08/08 02:06:56;;;;;;;79.80;13.50;;;;;;;;;;5017871;28;20824;-71
2022/08/08 02:09:30;;;;;;;23.27;5.53;;;;;;;;;;5010321;28;20550;-71
2022/08/08 02:11:58;;;;;;;44.83;8.10;;;;;;;;;;5008870;28;20518;-68
2022/08/08 02:14:30;;;;;;;29.73;6.80;;;;;;;;;;5017665;28;20522;-68
2022/08/08 02:16:59;;;;;;;35.83;6.50;;;;;;;;;;5019989;28;20488;-70
2022/08/08 02:19:28;;;;;;;38.40;7.73;;;;;;;;;;5015267;28;20488;-68
2022/08/08 02:24:50;;;;;;;80.23;13.10;;;;;;;;;;5019412;28;21036;-69
2022/08/08 02:27:20;;;;;;;24.40;6.77;;;12.90;76.10;;;;;;5019809;28;20537;-69
2022/08/08 02:30:02;;;;;;;72.80;11.90;;;;;;;;;;5020662;28;20905;-70
2022/08/08 02:32:42;;;;;;;32.93;7.00;;;12.90;75.70;;;;;;5016309;28;21219;-70
2022/08/08 02:35:24;;;;;;;34.10;6.47;;;;;;;;;;5021710;28;20909;-70
2022/08/08 02:38:01;;;;;;;83.00;12.63;;;;;;;;;;5020064;28;20951;-70
2022/08/08 02:40:37;;;;;;;23.67;5.73;;;;;;;;;;5017826;28;20905;-68
2022/08/08 02:43:14;;;;;;;38.80;7.60;;;;;;;;;;5020375;28;20487;-69
2022/08/08 02:45:52;;;;;;;74.90;12.47;;;;;;;;;;5018963;28;20849;-70
2022/08/08 02:48:37;;;;;;;43.87;8.73;;;;;;;;;;5018751;28;20484;-69
2022/08/08 02:51:20;;;;;;;16.17;4.20;;;;;;;;;;5014971;28;21159;-70
2022/08/08 02:54:00;;;;;;;73.20;13.10;;;;;;;;;;5019515;28;20472;-69
2022/08/08 02:56:42;;;;;;;47.53;9.20;;;;;;;;;;5018297;28;20572;-69
2022/08/08 02:59:24;;;;;;;36.30;7.50;;;;;;;;;;5019290;28;20484;-70
2022/08/08 03:02:09;;;;;;;53.73;9.50;;;;;;;;;;5009477;28;20855;-71
2022/08/08 03:04:54;;;;;;;26.57;5.60;;;;;;;;;;5013287;28;20483;-71
2022/08/08 03:07:40;;;;;;;46.83;7.63;;;;;;;;;;4994072;28;21236;-70
2022/08/08 03:10:27;;;;;;;39.73;8.00;;;;;;;;;;5016035;28;20484;-68
2022/08/08 03:13:04;;;;;;;34.43;6.43;;;;;;;;;;5022987;28;20486;-70
2022/08/08 03:15:55;;;;;;;46.47;8.47;;;;;;;;;;5000772;28;20496;-70
2022/08/08 03:18:27;;;;;;;47.47;8.63;;;;;;;;;;4994053;28;20488;-68
2022/08/08 03:20:53;;;;;;;45.07;7.30;;;;;;;;;;5013546;28;20488;-67
2022/08/08 03:23:22;;;;;;;33.13;7.47;;;;;;;;;;5010485;28;20480;-70
2022/08/08 03:25:50;;;;;;;75.20;12.53;;;;;;;;;;4999575;28;20503;-68
2022/08/08 03:28:20;;;;;;;24.83;5.63;;;;;;;;;;4989608;28;20503;-68
2022/08/08 03:30:47;;;;;;;73.20;12.33;;;12.50;78.80;;;;;;4988568;28;20907;-68
2022/08/08 03:33:18;;;;;;;34.47;7.10;;;;;;;;;;5018958;28;20922;-67
2022/08/08 03:35:46;;;;;;;54.80;10.47;;;;;;;;;;5014600;28;20515;-68
2022/08/08 03:38:13;;;;;;;32.50;6.67;;;;;;;;;;5006131;28;20546;-70
2022/08/08 03:40:41;;;;;;;72.53;11.73;;;;;;;;;;5013851;28;20515;-69
2022/08/08 03:43:09;;;;;;;41.83;7.30;;;;;;;;;;5015858;28;20491;-68
2022/08/08 03:45:36;;;;;;;50.80;9.10;;;;;;;;;;5015339;28;20575;-67
2022/08/08 03:48:06;;;;;;;40.27;8.20;;;;;;;;;;5016454;28;20488;-69
2022/08/08 03:50:34;;;;;;;51.13;9.30;;;;;;;;;;5016741;28;21280;-67
2022/08/08 03:53:03;;;;;;;31.47;6.20;;;;;;;;;;4993345;28;20492;-68
2022/08/08 03:55:30;;;;;;;27.47;6.47;;;;;;;;;;5014354;28;20548;-68
2022/08/08 03:57:58;;;;;;;46.87;8.77;;;;;;;;;;5005926;28;20492;-69
2022/08/08 04:00:28;;;;;;;21.93;5.73;;;;;;;;;;4980432;28;20500;-68
2022/08/08 04:02:55;;;;;;;39.40;7.70;;;;;;;;;;4988348;28;20490;-69
2022/08/08 04:05:25;;;;;;;37.07;8.03;;;;;;;;;;4989855;28;20507;-67
2022/08/08 04:07:52;;;;;;;70.23;11.70;;;;;;;;;;5016604;28;20557;-70
2022/08/08 04:10:19;;;;;;;32.77;6.83;;;;;;;;;;5016512;28;21149;-68
2022/08/08 04:12:46;;;;;;;68.10;11.17;;;;;;;;;;5017782;28;20546;-67
2022/08/08 04:15:14;;;;;;;38.90;7.73;;;;;;;;;;5017441;28;20484;-68
2022/08/08 04:17:42;;;;;;;92.47;13.87;;;;;;;;;;5017208;28;20539;-69
2022/08/08 04:20:09;;;;;;;37.73;7.77;;;;;;;;;;5015186;28;20889;-67
2022/08/08 04:22:36;;;;;;;52.90;8.87;;;;;;;;;;5014584;28;20495;-69
2022/08/08 04:25:04;;;;;;;48.87;7.97;;;;;;;;;;5016553;28;20484;-70
2022/08/08 04:27:31;;;;;;;12.87;4.40;;;;;;;;;;5014836;28;20530;-67
2022/08/08 04:29:58;;;;;;;34.13;6.70;;;;;;;;;;5022440;28;20539;-68
2022/08/08 04:32:27;;;;;;;38.57;6.73;;;;;;;;;;5017103;28;20541;-69
2022/08/08 04:34:55;;;;;;;53.83;9.67;;;;;;;;;;5015168;28;20488;-69
2022/08/08 04:37:22;;;;;;;34.23;7.30;;;;;;;;;;5018157;28;20851;-68
2022/08/08 04:39:49;;;;;;;75.27;12.60;;;;;;;;;;5017034;28;20484;-69
2022/08/08 04:42:16;;;;;;;49.13;8.73;;;;;;;;;;5015138;28;20976;-68
2022/08/08 04:44:43;;;;;;;68.27;11.23;;;;;;;;;;5007609;28;20483;-68
2022/08/08 04:47:11;;;;;;;42.57;6.90;;;;;;;;;;5012263;28;20573;-69
2022/08/08 04:49:39;;;;;;;55.60;9.27;;;;;;;;;;5017521;28;20540;-68
2022/08/08 04:52:06;;;;;;;55.57;9.63;;;;;;;;;;5012766;28;20483;-68
2022/08/08 04:54:33;;;;;;;37.73;6.93;;;;;;;;;;5015934;28;20546;-68
2022/08/08 04:57:01;;;;;;;37.40;7.03;;;;;;;;;;5021327;28;20488;-68
2022/08/08 04:59:28;;;;;;;29.03;6.57;;;;;;;;;;5018121;28;20509;-68
2022/08/08 05:01:55;;;;;;;58.10;9.30;;;;;;;;;;5017111;28;20824;-69
2022/08/08 05:04:22;;;;;;;34.27;7.10;;;;;;;;;;5014521;28;20481;-70
2022/08/08 05:06:50;;;;;;;67.17;11.20;;;;;;;;;;5019008;28;20480;-68
2022/08/08 05:09:18;;;;;;;35.07;6.10;;;;;;;;;;5016248;28;20481;-69
2022/08/08 05:11:45;;;;;;;84.67;14.03;;;;;;;;;;5015276;28;20481;-69
2022/08/08 05:14:12;;;;;;;36.23;7.47;;;;;;;;;;5016423;28;20679;-70
2022/08/08 05:16:40;;;;;;;59.17;10.10;;;;;;;;;;5017400;28;20552;-70
2022/08/08 05:19:11;;;;;;;43.13;8.47;;;;;;;;;;5019734;28;20484;-69
2022/08/08 05:21:38;;;;;;;63.87;10.97;;;;;;;;;;5016134;28;20635;-68
2022/08/08 05:24:07;;;;;;;43.20;8.33;;;;;;;;;;5016919;28;20495;-68
2022/08/08 05:26:34;;;;;;;39.10;7.80;;;;;;;;;;5005321;28;20688;-70
2022/08/08 05:29:03;;;;;;;36.30;7.53;;;;;;;;;;5017788;28;20487;-68
2022/08/08 05:31:30;;;;;;;37.63;8.23;;;;;;;;;;5018252;28;20491;-69
2022/08/08 05:33:57;;;;;;;49.63;9.70;;;;;;;;;;5017803;28;20913;-68
2022/08/08 05:36:25;;;;;;;57.57;9.20;;;;;;;;;;5016806;28;20538;-69
2022/08/08 05:38:52;;;;;;;57.97;10.97;;;;;;;;;;5017310;28;20484;-69
2022/08/08 05:41:22;;;;;;;56.03;10.13;;;;;;;;;;5014446;28;20491;-69
2022/08/08 05:43:49;;;;;;;87.37;13.97;;;;;;;;;;5013862;28;20480;-70
2022/08/08 05:46:17;;;;;;;36.03;8.07;;;;;;;;;;5006631;28;20472;-70
2022/08/08 05:48:44;;;;;;;69.13;11.80;;;;;;;;;;5017580;28;20483;-70
2022/08/08 05:51:11;;;;;;;34.10;7.90;;;;;;;;;;5016402;28;20479;-69
2022/08/08 05:53:39;;;;;;;30.77;6.80;;;;;;;;;;5018006;28;21252;-70
2022/08/08 05:56:08;;;;;;;41.47;8.80;;;;;;;;;;5020260;28;20491;-70
2022/08/08 05:58:40;;;;;;;33.67;7.60;;;;;;;;;;5019474;28;20487;-69
2022/08/08 06:01:07;;;;;;;36.03;8.10;;;;;;;;;;5009271;28;20595;-69
2022/08/08 06:03:35;;;;;;;32.17;8.13;;;;;;;;;;5022235;28;20487;-70
2022/08/08 06:06:05;;;;;;;34.63;7.73;;;;;;;;;;5008774;28;20950;-69
2022/08/08 06:08:35;;;;;;;44.77;9.60;;;;;;;;;;5029723;28;20499;-70
2022/08/08 06:11:02;;;;;;;54.43;10.13;;;;;;;;;;5000347;28;20582;-69
2022/08/08 06:13:31;;;;;;;54.67;11.50;;;;;;;;;;5022325;28;20546;-69
2022/08/08 06:15:59;;;;;;;39.67;8.40;;;;;;;;;;5007090;28;20487;-70
2022/08/08 06:18:28;;;;;;;48.73;10.87;;;;;;;;;;5009578;28;20492;-70
2022/08/08 06:20:56;;;;;;;49.27;9.63;;;;;;;;;;5011967;28;20493;-71
2022/08/08 06:23:23;;;;;;;39.60;8.53;;;;;;;;;;5013219;28;20472;-70
2022/08/08 06:25:57;;;;;;;71.23;12.17;;;;;;;;;;5010929;28;20851;-70
2022/08/08 06:28:30;;;;;;;40.40;8.53;;;;;;;;;;5005915;28;20601;-70
2022/08/08 06:31:00;;;;;;;31.00;5.87;;;;;;;;;;5027718;28;20477;-71
2022/08/08 06:33:31;;;;;;;32.90;7.90;;;;;;;;;;5027567;28;20568;-70
2022/08/08 06:35:59;;;;;;;28.83;6.23;;;;;;;;;;5015724;28;20468;-69
2022/08/08 06:38:28;;;;;;;30.17;5.70;;;;;;;;;;5014593;28;20495;-70
2022/08/08 06:40:59;;;;;;;52.00;9.80;;;;;;;;;;5005279;28;21031;-69
2022/08/08 06:43:30;;;;;;;28.60;6.50;;;;;;;;;;5007500;28;20480;-70
2022/08/08 06:46:02;;;;;;;27.13;5.70;;;19.10;68.90;;;;;;5006579;28;20493;-70
2022/08/08 06:48:29;;;;;;;22.67;5.33;;;;;;;;;;5014187;28;20852;-70
2022/08/08 06:50:57;;;;;;;50.77;6.70;;;;;;;;;;5015324;28;20485;-70
2022/08/08 06:53:26;;;;;;;32.80;7.50;;;;;;;;;;5014070;28;20481;-70
2022/08/08 06:55:53;;;;;;;43.00;8.50;;;;;;;;;;5013664;28;20574;-70
2022/08/08 06:58:20;;;;;;;44.13;7.80;;;;;;;;;;5013850;28;20476;-71
2022/08/08 07:00:48;;;;;;;67.37;10.73;;;;;;;;;;4998652;28;20535;-72
2022/08/08 07:03:26;;;;;;;39.13;7.37;;;;;;;;;;5021112;28;20585;-71
2022/08/08 07:05:55;;;;;;;52.30;8.93;;;;;;;;;;5012100;28;20479;-72
2022/08/08 07:08:27;;;;;;;43.83;7.90;;;;;;;;;;5014420;28;20485;-71
2022/08/08 07:10:57;;;;;;;86.70;10.33;;;;;;;;;;5012776;28;20985;-71
2022/08/08 07:13:28;;;;;;;33.00;6.67;;;;;;;;;;5010230;28;20486;-71
2022/08/08 07:16:00;;;;;;;52.53;8.57;;;;;;;;;;5012230;28;21067;-71
2022/08/08 07:18:35;;;;;;;33.70;6.10;;;;;;;;;;5014272;28;20486;-70
2022/08/08 07:21:06;;;;;;;36.53;6.20;;;;;;;;;;5001870;28;20488;-71
2022/08/08 07:23:39;;;;;;;53.13;9.90;;;;;;;;;;5009725;28;20802;-70
2022/08/08 07:26:06;;;;;;;44.63;7.07;;;;;;;;;;5002355;28;20479;-71
2022/08/08 07:28:33;;;;;;;38.13;7.57;;;;;;;;;;5012128;28;20472;-71
2022/08/08 07:31:01;;;;;;;53.07;8.10;;;;;;;;;;5010056;28;21041;-69
2022/08/08 07:33:32;;;;;;;41.40;8.23;;;;;;;;;;5010716;28;20742;-70
2022/08/08 07:36:00;;;;;;;42.27;7.67;;;24.00;56.30;;;;;;5009946;28;20859;-71
2022/08/08 07:38:28;;;;;;;26.10;5.90;;;;;;;;;;5015681;28;21151;-71
2022/08/08 07:40:57;;;;;;;41.03;7.67;;;;;;;;;;5011588;28;20825;-70
2022/08/08 07:43:24;;;;;;;47.83;8.97;;;;;;;;;;5010440;28;20488;-70
2022/08/08 07:45:51;;;;;;;59.63;10.40;;;;;;;;;;4988445;28;20480;-71
2022/08/08 07:48:19;;;;;;;52.87;9.13;;;;;;;;;;5027901;28;20476;-71
2022/08/08 07:50:48;;;;;;;80.93;13.03;;;;;;;;;;5007992;28;20472;-69
2022/08/08 07:53:18;;;;;;;40.07;7.53;;;;;;;;;;5002284;28;20817;-71
2022/08/08 07:55:47;;;;;;;70.37;11.70;;;;;;;;;;5012699;28;20476;-71
2022/08/08 07:58:18;;;;;;;49.63;8.50;;;;;;;;;;5008303;28;21259;-69
2022/08/08 08:00:50;;;;;;;81.40;12.90;;;;;;;;;;5021660;28;21015;-69
2022/08/08 08:03:21;;;;;;;41.37;7.40;;;;;;;;;;5011593;28;21042;-71
2022/08/08 08:05:51;;;;;;;81.60;13.17;;;;;;;;;;5008455;28;20881;-71
2022/08/08 08:08:19;;;;;;;33.47;6.67;;;26.80;53.10;;;;;;5010887;28;20969;-70
2022/08/08 08:10:50;;;;;;;93.63;15.93;;;;;;;;;;5011942;28;20895;-70
2022/08/08 08:13:26;;;;;;;54.63;9.73;;;;;;;;;;5012313;28;20488;-70
2022/08/08 08:15:57;;;;;;;64.07;10.47;;;;;;;;;;5008401;28;20847;-70
2022/08/08 08:18:25;;;;;;;49.87;8.30;;;;;;;;;;5009186;28;20503;-70
2022/08/08 08:20:54;;;;;;;56.83;9.37;;;;;;;;;;5011916;28;20484;-70
2022/08/08 08:23:21;;;;;;;98.30;12.40;;;;;;;;;;5007238;28;20485;-70
2022/08/08 08:25:48;;;;;;;89.33;13.80;;;;;;;;;;4997272;28;21011;-70
2022/08/08 08:28:15;;;;;;;50.93;8.00;;;;;;;;;;5020465;28;20480;-70
2022/08/08 08:30:42;;;;;;;97.20;12.57;;;;;;;;;;5010795;28;20485;-71
2022/08/08 08:33:09;;;;;;;48.40;7.97;;;;;;;;;;5010145;28;20836;-70
2022/08/08 08:35:36;;;;;;;41.17;8.47;;;;;;;;;;5006454;28;20497;-73
2022/08/08 08:38:04;;;;;;;43.60;8.20;;;;;;;;;;5007829;28;20491;-71
2022/08/08 08:40:32;;;;;;;32.83;6.40;;;;;;;;;;5010750;28;20484;-70
2022/08/08 08:43:01;;;;;;;71.73;11.00;;;;;;;;;;5008466;28;20492;-72
2022/08/08 08:45:29;;;;;;;48.17;6.90;;;;;;;;;;5002256;28;20573;-71
2022/08/08 08:47:56;;;;;;;42.47;7.03;;;;;;;;;;5010422;28;21321;-71
2022/08/08 08:50:24;;;;;;;36.37;6.87;;;;;;;;;;5011659;28;20496;-71
2022/08/08 08:52:51;;;;;;;80.37;12.67;;;;;;;;;;5014325;28;20485;-73
2022/08/08 08:55:20;;;;;;;59.27;10.60;;;;;;;;;;5010528;28;20770;-72
2022/08/08 08:57:49;;;;;;;69.50;10.57;;;;;;;;;;5003723;28;20799;-72
2022/08/08 09:00:17;;;;;;;61.90;10.10;;;;;;;;;;5003793;28;20517;-72
2022/08/08 09:02:45;;;;;;;79.80;12.37;;;;;;;;;;5021389;28;20484;-71
2022/08/08 09:05:13;;;;;;;41.40;6.70;;;;;;;;;;5011141;28;21058;-73
2022/08/08 09:07:42;;;;;;;49.27;8.53;;;;;;;;;;5010466;28;20485;-70
2022/08/08 09:10:09;;;;;;;52.17;8.63;;;;;;;;;;5009187;28;20497;-73
2022/08/08 09:12:40;;;;;;;35.20;7.63;;;;;;;;;;5011015;28;20534;-73
2022/08/08 09:15:08;;;;;;;37.17;6.53;;;;;;;;;;5009796;28;20489;-74
2022/08/08 09:17:35;;;;;;;64.83;11.00;;;;;;;;;;4998496;28;20871;-71
2022/08/08 09:20:03;;;;;;;45.13;7.33;;;;;;;;;;4998952;28;20495;-72
2022/08/08 09:22:33;;;;;;;22.27;5.70;;;;;;;;;;5025471;28;20851;-72
2022/08/08 09:25:00;;;;;;;54.07;9.37;;;;;;;;;;5007462;28;21012;-72
2022/08/08 09:27:28;;;;;;;40.40;7.33;;;;;;;;;;5010592;28;20974;-73
2022/08/08 09:30:01;;;;;;;59.40;10.03;;;;;;;;;;5013349;28;20480;-72
2022/08/08 09:32:35;;;;;;;38.03;7.67;;;;;;;;;;5013817;28;20470;-73
2022/08/08 09:35:04;;;;;;;44.20;7.70;;;;;;;;;;5015197;28;20594;-73
2022/08/08 09:37:31;;;;;;;23.30;5.40;;;;;;;;;;5013368;28;20480;-72
2022/08/08 09:40:01;;;;;;;53.53;8.83;;;;;;;;;;5014035;28;20507;-71
2022/08/08 09:42:33;;;;;;;34.47;7.23;;;;;;;;;;5013154;28;20904;-70
2022/08/08 09:45:07;;;;;;;13.40;3.07;;;29.90;44.80;;;;;;5039314;22;20475;-51
2022/08/08 09:47:35;;;;;;;9.00;2.50;;;29.80;45.90;;;;;;5025520;28;20524;-48
2022/08/08 09:50:05;;;;;;;5.97;3.70;;;29.80;46.80;;;;;;5017448;28;20497;-50
2022/08/08 09:52:34;;;;;;;14.63;2.77;;;30.00;46.60;;;;;;5023662;28;20492;-49
2022/08/08 09:55:01;;;;;;;4.83;4.23;;;30.10;46.10;;;;;;5027673;28;20486;-50
2022/08/08 09:57:33;;;;;;;4.00;2.70;;;;;;;;;;5041966;28;20461;-49
2022/08/08 10:00:00;;;;;;;3.07;2.67;;;30.30;46.60;;;;;;5004132;28;20508;-49
2022/08/08 10:02:35;;;;;;;6.40;3.13;;;30.40;46.50;;;;;;5008388;28;20481;-49
2022/08/08 10:05:08;;;;;;;9.67;2.90;;;30.60;45.90;;;;;;5004353;28;21093;-49
2022/08/08 10:07:35;;;;;;;5.80;2.43;;;30.60;45.50;;;;;;5005611;28;20484;-49
2022/08/08 10:10:03;;;;;;;3.23;2.93;;;30.60;46.20;;;;;;5036656;28;20561;-50
2022/08/08 10:12:36;;;;;;;4.80;2.37;;;30.90;47.40;;;;;;5015738;28;20447;-49
2022/08/08 10:15:10;;;;;;;6.27;3.83;;;32.30;46.90;;;;;;5001874;28;20836;-50
2022/08/08 10:17:54;;;;;;;3.97;2.63;;;30.30;44.50;;;;;;5001568;28;20470;-52
2022/08/08 10:20:28;;;;;;;6.00;3.33;;;30.30;45.20;;;;;;5006698;28;21103;-52
2022/08/08 10:22:59;;;;;;;11.40;3.40;;;30.50;47.00;;;;;;5011656;28;20537;-49
2022/08/08 10:25:27;;;;;;;21.17;4.57;;;30.60;46.80;;;;;;5006843;28;20964;-47
2022/08/08 10:27:55;;;;;;;4.93;3.70;;;30.80;46.30;;;;;;5028566;28;20467;-50
2022/08/08 10:30:24;;;;;;;6.77;2.80;;;31.00;46.60;;;;;;5030368;28;21255;-49
2022/08/08 10:32:53;;;;;;;9.40;3.73;;;31.30;46.90;;;;;;5029771;28;20488;-49
2022/08/08 10:35:22;;;;;;;3.10;2.43;;;31.30;46.20;;;;;;5030789;28;20476;-49
2022/08/08 10:37:57;;;;;;;17.03;5.50;;;31.30;45.20;;;;;;5030944;28;21159;-48
2022/08/08 10:40:25;;;;;;;11.10;4.13;;;31.20;45.20;;;;;;5030889;28;20494;-49
2022/08/08 10:42:56;;;;;;;19.33;4.47;;;31.40;45.80;;;;;;5026981;28;21169;-48
2022/08/08 10:45:27;;;;;;;4.30;2.90;;;31.30;44.60;;;;;;5027615;28;20542;-49
2022/08/08 10:48:03;;;;;;;3.43;3.13;;;31.40;45.20;;;;;;5003071;28;20507;-49
2022/08/08 10:50:35;;;;;;;15.77;3.13;;;31.40;45.50;;;;;;5004852;28;20486;-49
2022/08/08 10:53:03;;;;;;;5.43;3.60;;;;;;;;;;5012197;28;20962;-48
2022/08/08 10:55:30;;;;;;;7.17;2.93;;;31.50;44.70;;;;;;5012851;28;20518;-50
2022/08/08 10:58:01;;;;;;;11.93;3.20;;;31.50;43.90;;;;;;5018537;28;20992;-49
2022/08/08 11:00:28;;;;;;;7.63;2.30;;;31.60;45.00;;;;;;5010020;28;21094;-49
2022/08/08 11:02:57;;;;;;;6.30;3.13;;;31.40;43.20;;;;;;5009249;28;20447;-49
2022/08/08 11:05:26;;;;;;;7.93;2.93;;;31.40;45.20;;;;;;5013004;28;20962;-50
2022/08/08 11:07:54;;;;;;;5.30;2.10;;;31.50;45.80;;;;;;5030236;28;20490;-50
2022/08/08 11:10:22;;;;;;;10.93;2.57;;;31.70;44.20;;;;;;5031519;28;20539;-51
2022/08/08 11:12:51;;;;;;;4.80;3.43;;;32.00;44.90;;;;;;5019828;28;20462;-51
2022/08/08 11:15:22;;;;;;;3.50;2.77;;;32.10;44.90;;;;;;5030723;28;20484;-51
2022/08/08 11:17:52;;;;;;;12.30;2.20;;;32.30;44.80;;;;;;5006628;28;20485;-51
2022/08/08 11:20:23;;;;;;;4.23;3.83;;;32.20;43.40;;;;;;4982614;28;21225;-52
2022/08/08 11:22:53;;;;;;;5.07;2.17;;;32.20;43.90;;;;;;5025619;28;20481;-49
2022/08/08 11:25:24;;;;;;;2.67;2.30;;;32.10;43.40;;;;;;5019980;28;20453;-50
2022/08/08 11:27:53;;;;;;;8.80;2.73;;;32.00;44.20;;;;;;5029252;28;20896;-50
2022/08/08 11:30:23;;;;;;;8.37;2.40;;;32.10;44.00;;;;;;5014148;28;20977;-51
2022/08/08 11:32:53;;;;;;;2.87;1.97;;;32.20;44.20;;;;;;4997287;28;20865;-51
2022/08/08 11:35:22;;;;;;;8.60;2.67;;;;;;;;;;5003509;28;20459;-51
2022/08/08 11:37:49;;;;;;;8.27;2.23;;;32.10;43.20;;;;;;5007632;28;20529;-50
2022/08/08 11:40:16;;;;;;;5.83;3.50;;;32.00;43.60;;;;;;5009290;28;20829;-48
2022/08/08 11:42:44;;;;;;;5.17;2.80;;;;;;;;;;5009414;28;20831;-51
2022/08/08 11:45:17;;;;;;;3.40;3.07;;;32.20;44.30;;;;;;5018450;28;20461;-50
2022/08/08 11:47:49;;;;;;;3.17;2.90;;;32.40;44.90;;;;;;4986903;28;20484;-51
2022/08/08 11:50:18;;;;;;;12.40;1.70;;;32.80;44.30;;;;;;4992396;28;20463;-50
2022/08/08 11:52:47;;;;;;;5.90;2.10;;;32.20;42.50;;;;;;5008209;28;20473;-50
2022/08/08 11:55:17;;;;;;;8.30;2.10;;;32.80;42.80;;;;;;5020627;28;20475;-52
2022/08/08 11:57:44;;;;;;;14.20;2.37;;;32.80;43.90;;;;;;5028740;28;20476;-50
2022/08/08 12:00:16;;;;;;;3.47;1.60;;;32.90;43.30;;;;;;5030436;28;20526;-51
2022/08/08 12:02:48;;;;;;;4.10;1.70;;;33.00;42.50;;;;;;5006288;28;20480;-51
2022/08/08 12:05:15;;;;;;;8.93;1.97;;;33.10;43.80;;;;;;5012555;28;20455;-51
2022/08/08 12:07:48;;;;;;;3.03;1.90;;;33.00;42.30;;;;;;5012837;28;20545;-49
2022/08/08 12:10:15;;;;;;;10.50;2.70;;;32.90;42.30;;;;;;5011705;28;20506;-51
2022/08/08 12:12:43;;;;;;;4.50;1.40;;;33.00;43.70;;;;;;5011962;28;21361;-51
2022/08/08 12:15:14;;;;;;;6.07;2.50;;;33.00;42.40;;;;;;5009256;28;20455;-50
2022/08/08 12:17:41;;;;;;;9.70;3.17;;;33.10;43.10;;;;;;4986037;28;20454;-49
2022/08/08 12:20:09;;;;;;;2.10;1.50;;;33.30;42.90;;;;;;5023420;28;20481;-51
2022/08/08 12:22:48;;;;;;;8.60;1.73;;;33.30;42.30;;;;;;5009126;28;20489;-51
2022/08/08 12:25:23;;;;;;;3.47;1.80;;;33.40;42.20;;;;;;5005846;28;20540;-53
2022/08/08 12:27:50;;;;;;;3.40;1.70;;;33.40;42.20;;;;;;4984100;28;20975;-51
2022/08/08 12:30:17;;;;;;;10.73;1.67;;;33.50;42.70;;;;;;5013996;28;20973;-51
2022/08/08 12:32:45;;;;;;;3.20;1.90;;;33.30;42.10;;;;;;5008745;28;20463;-52
2022/08/08 12:35:21;;;;;;;4.73;1.53;;;;;;;;;;5001464;28;20487;-52
2022/08/08 12:38:04;;;;;;;2.83;1.77;;;33.20;40.50;;;;;;5013450;28;21232;-51
2022/08/08 12:40:39;;;;;;;3.93;1.57;;;33.50;43.00;;;;;;4999186;28;20451;-52
2022/08/08 12:43:06;;;;;;;5.60;1.90;;;33.70;42.90;;;;;;5027584;28;20895;-52
2022/08/08 12:45:38;;;;;;;2.23;1.50;;;33.70;40.50;;;;;;5017455;28;21182;-52
2022/08/08 12:48:08;;;;;;;10.57;2.23;;;33.60;41.80;;;;;;4997953;28;20454;-50
2022/08/08 12:50:39;;;;;;;14.07;2.30;;;33.50;41.80;;;;;;5015547;28;20807;-52
2022/08/08 12:53:22;;;;;;;2.40;1.73;;;33.60;41.50;;;;;;5013795;28;20932;-52
2022/08/08 12:55:57;;;;;;;10.17;2.80;;;33.30;40.80;;;;;;5012962;28;20552;-53
2022/08/08 12:58:25;;;;;;;4.93;1.90;;;33.30;42.20;;;;;;5012569;28;20433;-52
2022/08/08 13:00:52;;;;;;;6.00;1.73;;;33.50;42.50;;;;;;5012075;28;20765;-51
2022/08/08 13:03:26;;;;;;;2.10;1.40;;;33.60;41.20;;;;;;5010482;28;20955;-51
2022/08/08 13:06:08;;;;;;;7.50;1.73;;;33.80;42.00;;;;;;5009285;28;20458;-51
2022/08/08 13:08:40;;;;;;;8.50;1.70;;;;;;;;;;5011073;28;20741;-55
2022/08/08 13:11:17;;;;;;;10.90;1.90;;;34.10;41.80;;;;;;5005522;28;20872;-54
2022/08/08 13:13:51;;;;;;;4.33;1.53;;;34.10;40.90;;;;;;5013759;28;20453;-51
2022/08/08 13:16:19;;;;;;;3.30;1.70;;;34.00;41.70;;;;;;5015914;28;20842;-52
2022/08/08 13:18:47;;;;;;;2.80;1.43;;;34.00;41.50;;;;;;5016408;28;20466;-51
2022/08/08 13:21:14;;;;;;;2.83;1.73;;;33.80;40.90;;;;;;5002472;28;20461;-52
2022/08/08 13:23:42;;;;;;;22.93;2.67;;;33.70;40.60;;;;;;5016340;28;21024;-52
2022/08/08 13:26:10;;;;;;;4.07;1.50;;;33.70;40.60;;;;;;5009387;28;20451;-55
2022/08/08 13:28:36;;;;;;;2.07;1.50;;;33.70;41.60;;;;;;5006434;28;20501;-55
2022/08/08 13:31:04;;;;;;;9.40;1.87;;;33.80;41.30;;;;;;5012519;28;20986;-54
2022/08/08 13:33:31;;;;;;;7.30;1.40;;;;;;;;;;5008392;28;20484;-52
2022/08/08 13:35:59;;;;;;;4.50;1.53;;;34.20;41.10;;;;;;5006014;28;20455;-52
2022/08/08 13:38:25;;;;;;;10.83;1.87;;;34.40;41.20;;;;;;5005792;28;20492;-52
2022/08/08 13:40:53;;;;;;;1.90;1.60;;;34.40;40.50;;;;;;5008220;28;20574;-51
2022/08/08 13:43:20;;;;;;;3.40;1.70;;;34.40;40.50;;;;;;5013118;28;20463;-52
2022/08/08 13:45:47;;;;;;;17.87;2.03;;;33.90;38.80;;;;;;5005597;28;20469;-52
2022/08/08 13:48:16;;;;;;;2.30;2.00;;;33.40;40.40;;;;;;5023787;28;20900;-51
2022/08/08 13:50:45;;;;;;;8.63;1.77;;;33.60;41.20;;;;;;5006994;28;20466;-51
2022/08/08 13:53:12;;;;;;;18.77;2.07;;;33.70;41.10;;;;;;5028568;28;20512;-52
2022/08/08 13:55:39;;;;;;;9.33;1.40;;;33.70;41.40;;;;;;5022586;28;20507;-52
2022/08/08 13:58:18;;;;;;;8.40;1.77;;;34.00;40.70;;;;;;5021638;28;20872;-50
2022/08/08 14:00:45;;;;;;;5.30;2.23;;;34.00;41.00;;;;;;5028692;28;20525;-51
2022/08/08 14:03:11;;;;;;;1.90;1.53;;;33.50;40.00;;;;;;5036075;28;20480;-50
2022/08/08 14:05:38;;;;;;;23.33;2.80;;;33.70;40.90;;;;;;5033094;28;20729;-51
2022/08/08 14:08:05;;;;;;;2.07;1.33;;;33.70;40.20;;;;;;5034160;28;20858;-50
2022/08/08 14:10:34;;;;;;;5.90;1.60;;;33.90;41.20;;;;;;5009435;28;20534;-50
2022/08/08 14:13:04;;;;;;;18.53;2.33;;;34.00;40.60;;;;;;5006910;28;20505;-49
2022/08/08 14:15:35;;;;;;;13.83;1.93;;;34.00;40.80;;;;;;5003808;28;20958;-50
2022/08/08 14:18:04;;;;;;;5.70;1.70;;;34.10;40.40;;;;;;5010762;28;20957;-50